sensor_id;sensor_type;location;lat;lon;timestamp;P1;durP1;ratioP1;P2;durP2;ratioP2
15952;SDS011;8075;47.766;8.846;2024-02-23T00:00:09;0.20;;;0.03;;
15952;SDS011;8075;47.766;8.846;2024-02-23T00:02:36;0.30;;;0.10;;
15952;SDS011;8075;47.766;8.846;2024-02-23T00:05:02;0.70;;;0.10;;
15952;SDS011;8075;47.766;8.846;2024-02-23T00:07:28;0.57;;;0.10;;
15952;SDS011;8075;47.766;8.846;2024-02-23T00:09:54;0.20;;;0.10;;
15952;SDS011;8075;47.766;8.846;2024-02-23T00:12:20;0.00;;;0.00;;
15952;SDS011;8075;47.766;8.846;2024-02-23T00:14:46;0.05;;;0.05;;
15952;SDS011;8075;47.766;8.846;2024-02-23T00:17:13;0.10;;;0.10;;
15952;SDS011;8075;47.766;8.846;2024-02-23T00:19:39;0.30;;;0.10;;
15952;SDS011;8075;47.766;8.846;2024-02-23T00:22:05;0.20;;;0.10;;
15952;SDS011;8075;47.766;8.846;2024-02-23T00:24:30;0.20;;;0.20;;
15952;SDS011;8075;47.766;8.846;2024-02-23T00:26:56;0.75;;;0.30;;
15952;SDS011;8075;47.766;8.846;2024-02-23T00:29:22;0.30;;;0.13;;
15952;SDS011;8075;47.766;8.846;2024-02-23T00:31:49;0.50;;;0.20;;
15952;SDS011;8075;47.766;8.846;2024-02-23T00:34:16;0.30;;;0.10;;
15952;SDS011;8075;47.766;8.846;2024-02-23T00:36:43;0.40;;;0.30;;
15952;SDS011;8075;47.766;8.846;2024-02-23T00:39:09;1.60;;;0.20;;
15952;SDS011;8075;47.766;8.846;2024-02-23T00:41:36;0.30;;;0.20;;
15952;SDS011;8075;47.766;8.846;2024-02-23T00:44:02;0.22;;;0.20;;
15952;SDS011;8075;47.766;8.846;2024-02-23T00:46:28;0.70;;;0.20;;
15952;SDS011;8075;47.766;8.846;2024-02-23T00:48:54;0.20;;;0.20;;
15952;SDS011;8075;47.766;8.846;2024-02-23T00:51:20;0.50;;;0.10;;
15952;SDS011;8075;47.766;8.846;2024-02-23T00:53:46;0.38;;;0.10;;
15952;SDS011;8075;47.766;8.846;2024-02-23T00:56:13;0.47;;;0.20;;
15952;SDS011;8075;47.766;8.846;2024-02-23T00:58:39;0.17;;;0.10;;
15952;SDS011;8075;47.766;8.846;2024-02-23T01:01:08;0.30;;;0.10;;
15952;SDS011;8075;47.766;8.846;2024-02-23T01:03:34;0.70;;;0.20;;
15952;SDS011;8075;47.766;8.846;2024-02-23T01:06:00;1.23;;;0.30;;
15952;SDS011;8075;47.766;8.846;2024-02-23T01:08:26;0.20;;;0.20;;
15952;SDS011;8075;47.766;8.846;2024-02-23T01:10:52;0.60;;;0.20;;
15952;SDS011;8075;47.766;8.846;2024-02-23T01:13:18;0.38;;;0.20;;
15952;SDS011;8075;47.766;8.846;2024-02-23T01:15:44;0.10;;;0.10;;
15952;SDS011;8075;47.766;8.846;2024-02-23T01:18:10;0.35;;;0.10;;
15952;SDS011;8075;47.766;8.846;2024-02-23T01:20:36;0.43;;;0.10;;
15952;SDS011;8075;47.766;8.846;2024-02-23T01:23:02;0.30;;;0.10;;
15952;SDS011;8075;47.766;8.846;2024-02-23T01:25:28;0.00;;;0.00;;
15952;SDS011;8075;47.766;8.846;2024-02-23T01:27:54;0.30;;;0.10;;
15952;SDS011;8075;47.766;8.846;2024-02-23T01:30:21;0.20;;;0.10;;
15952;SDS011;8075;47.766;8.846;2024-02-23T01:32:47;0.10;;;0.10;;
15952;SDS011;8075;47.766;8.846;2024-02-23T01:35:15;0.10;;;0.07;;
15952;SDS011;8075;47.766;8.846;2024-02-23T01:37:41;0.10;;;0.10;;
15952;SDS011;8075;47.766;8.846;2024-02-23T01:40:07;0.10;;;0.10;;
15952;SDS011;8075;47.766;8.846;2024-02-23T01:42:33;0.10;;;0.10;;
15952;SDS011;8075;47.766;8.846;2024-02-23T01:44:59;0.10;;;0.10;;
15952;SDS011;8075;47.766;8.846;2024-02-23T01:47:26;0.30;;;0.30;;
15952;SDS011;8075;47.766;8.846;2024-02-23T01:49:53;0.30;;;0.20;;
15952;SDS011;8075;47.766;8.846;2024-02-23T01:52:19;0.20;;;0.10;;
15952;SDS011;8075;47.766;8.846;2024-02-23T01:54:46;0.50;;;0.20;;
15952;SDS011;8075;47.766;8.846;2024-02-23T01:57:12;0.07;;;0.00;;
15952;SDS011;8075;47.766;8.846;2024-02-23T01:59:39;0.28;;;0.20;;
15952;SDS011;8075;47.766;8.846;2024-02-23T02:02:06;0.20;;;0.20;;
15952;SDS011;8075;47.766;8.846;2024-02-23T02:04:32;0.13;;;0.13;;
15952;SDS011;8075;47.766;8.846;2024-02-23T02:06:58;0.10;;;0.10;;
15952;SDS011;8075;47.766;8.846;2024-02-23T02:09:25;0.10;;;0.10;;
15952;SDS011;8075;47.766;8.846;2024-02-23T02:11:51;0.20;;;0.20;;
15952;SDS011;8075;47.766;8.846;2024-02-23T02:14:17;0.10;;;0.10;;
15952;SDS011;8075;47.766;8.846;2024-02-23T02:16:43;0.10;;;0.10;;
15952;SDS011;8075;47.766;8.846;2024-02-23T02:19:10;0.10;;;0.10;;
15952;SDS011;8075;47.766;8.846;2024-02-23T02:21:36;0.10;;;0.10;;
15952;SDS011;8075;47.766;8.846;2024-02-23T02:24:02;0.10;;;0.00;;
15952;SDS011;8075;47.766;8.846;2024-02-23T02:26:29;0.20;;;0.10;;
15952;SDS011;8075;47.766;8.846;2024-02-23T02:28:55;0.80;;;0.10;;
15952;SDS011;8075;47.766;8.846;2024-02-23T02:31:21;0.10;;;0.10;;
15952;SDS011;8075;47.766;8.846;2024-02-23T02:33:47;0.10;;;0.10;;
15952;SDS011;8075;47.766;8.846;2024-02-23T02:36:13;0.63;;;0.20;;
15952;SDS011;8075;47.766;8.846;2024-02-23T02:38:39;0.35;;;0.13;;
15952;SDS011;8075;47.766;8.846;2024-02-23T02:41:05;0.80;;;0.10;;
15952;SDS011;8075;47.766;8.846;2024-02-23T02:43:31;0.20;;;0.20;;
15952;SDS011;8075;47.766;8.846;2024-02-23T02:45:58;0.55;;;0.20;;
15952;SDS011;8075;47.766;8.846;2024-02-23T02:48:24;0.50;;;0.20;;
15952;SDS011;8075;47.766;8.846;2024-02-23T02:50:51;0.43;;;0.10;;
15952;SDS011;8075;47.766;8.846;2024-02-23T02:53:17;0.22;;;0.20;;
15952;SDS011;8075;47.766;8.846;2024-02-23T02:55:43;0.50;;;0.22;;
15952;SDS011;8075;47.766;8.846;2024-02-23T02:58:11;0.30;;;0.20;;
15952;SDS011;8075;47.766;8.846;2024-02-23T03:00:38;0.80;;;0.40;;
15952;SDS011;8075;47.766;8.846;2024-02-23T03:03:04;0.30;;;0.20;;
15952;SDS011;8075;47.766;8.846;2024-02-23T03:05:30;0.20;;;0.20;;
15952;SDS011;8075;47.766;8.846;2024-02-23T03:07:56;0.90;;;0.20;;
15952;SDS011;8075;47.766;8.846;2024-02-23T03:10:22;0.55;;;0.20;;
15952;SDS011;8075;47.766;8.846;2024-02-23T03:12:48;0.35;;;0.20;;
15952;SDS011;8075;47.766;8.846;2024-02-23T03:15:14;1.27;;;0.20;;
15952;SDS011;8075;47.766;8.846;2024-02-23T03:17:40;1.00;;;0.30;;
15952;SDS011;8075;47.766;8.846;2024-02-23T03:20:06;0.95;;;0.38;;
15952;SDS011;8075;47.766;8.846;2024-02-23T03:22:36;1.60;;;0.30;;
15952;SDS011;8075;47.766;8.846;2024-02-23T03:25:02;0.90;;;0.30;;
15952;SDS011;8075;47.766;8.846;2024-02-23T03:27:35;0.73;;;0.40;;
15952;SDS011;8075;47.766;8.846;2024-02-23T03:30:05;1.73;;;0.60;;
15952;SDS011;8075;47.766;8.846;2024-02-23T03:32:33;2.10;;;0.73;;
15952;SDS011;8075;47.766;8.846;2024-02-23T03:35:06;0.70;;;0.20;;
15952;SDS011;8075;47.766;8.846;2024-02-23T03:37:33;0.50;;;0.28;;
15952;SDS011;8075;47.766;8.846;2024-02-23T03:39:59;0.88;;;0.40;;
15952;SDS011;8075;47.766;8.846;2024-02-23T03:42:25;0.85;;;0.30;;
15952;SDS011;8075;47.766;8.846;2024-02-23T03:44:52;1.13;;;0.30;;
15952;SDS011;8075;47.766;8.846;2024-02-23T03:47:18;1.85;;;0.32;;
15952;SDS011;8075;47.766;8.846;2024-02-23T03:49:44;1.33;;;0.50;;
15952;SDS011;8075;47.766;8.846;2024-02-23T03:52:10;1.90;;;0.60;;
15952;SDS011;8075;47.766;8.846;2024-02-23T03:54:36;1.05;;;0.40;;
15952;SDS011;8075;47.766;8.846;2024-02-23T03:57:02;1.17;;;0.40;;
15952;SDS011;8075;47.766;8.846;2024-02-23T03:59:28;1.55;;;0.20;;
15952;SDS011;8075;47.766;8.846;2024-02-23T04:01:54;1.65;;;0.55;;
15952;SDS011;8075;47.766;8.846;2024-02-23T04:04:20;2.53;;;1.27;;
15952;SDS011;8075;47.766;8.846;2024-02-23T04:06:46;1.40;;;0.70;;
15952;SDS011;8075;47.766;8.846;2024-02-23T04:09:12;2.57;;;0.80;;
15952;SDS011;8075;47.766;8.846;2024-02-23T04:11:38;0.73;;;0.40;;
15952;SDS011;8075;47.766;8.846;2024-02-23T04:14:04;0.70;;;0.50;;
15952;SDS011;8075;47.766;8.846;2024-02-23T04:16:30;1.20;;;0.70;;
15952;SDS011;8075;47.766;8.846;2024-02-23T04:18:56;1.42;;;0.50;;
15952;SDS011;8075;47.766;8.846;2024-02-23T04:21:24;1.38;;;0.50;;
15952;SDS011;8075;47.766;8.846;2024-02-23T04:23:50;0.95;;;0.40;;
15952;SDS011;8075;47.766;8.846;2024-02-23T04:26:16;1.17;;;0.40;;
15952;SDS011;8075;47.766;8.846;2024-02-23T04:28:42;0.90;;;0.50;;
15952;SDS011;8075;47.766;8.846;2024-02-23T04:31:08;1.58;;;0.50;;
15952;SDS011;8075;47.766;8.846;2024-02-23T04:33:35;0.47;;;0.30;;
15952;SDS011;8075;47.766;8.846;2024-02-23T04:36:01;1.15;;;0.30;;
15952;SDS011;8075;47.766;8.846;2024-02-23T04:38:28;1.27;;;0.40;;
15952;SDS011;8075;47.766;8.846;2024-02-23T04:40:54;0.60;;;0.40;;
15952;SDS011;8075;47.766;8.846;2024-02-23T04:43:21;3.17;;;0.90;;
15952;SDS011;8075;47.766;8.846;2024-02-23T04:45:48;2.70;;;1.10;;
15952;SDS011;8075;47.766;8.846;2024-02-23T04:48:14;3.40;;;1.00;;
15952;SDS011;8075;47.766;8.846;2024-02-23T04:50:40;1.92;;;0.70;;
15952;SDS011;8075;47.766;8.846;2024-02-23T04:53:06;1.08;;;0.65;;
15952;SDS011;8075;47.766;8.846;2024-02-23T04:55:32;0.85;;;0.32;;
15952;SDS011;8075;47.766;8.846;2024-02-23T04:57:58;1.58;;;0.43;;
15952;SDS011;8075;47.766;8.846;2024-02-23T05:00:24;1.23;;;0.50;;
15952;SDS011;8075;47.766;8.846;2024-02-23T05:02:57;0.70;;;0.30;;
15952;SDS011;8075;47.766;8.846;2024-02-23T05:05:23;2.13;;;0.45;;
15952;SDS011;8075;47.766;8.846;2024-02-23T05:07:49;0.60;;;0.30;;
15952;SDS011;8075;47.766;8.846;2024-02-23T05:10:15;0.50;;;0.30;;
15952;SDS011;8075;47.766;8.846;2024-02-23T05:12:42;0.85;;;0.30;;
15952;SDS011;8075;47.766;8.846;2024-02-23T05:15:08;1.45;;;0.50;;
15952;SDS011;8075;47.766;8.846;2024-02-23T05:17:34;1.73;;;0.38;;
15952;SDS011;8075;47.766;8.846;2024-02-23T05:20:00;0.98;;;0.20;;
15952;SDS011;8075;47.766;8.846;2024-02-23T05:22:32;1.77;;;0.50;;
15952;SDS011;8075;47.766;8.846;2024-02-23T05:24:58;1.40;;;0.40;;
15952;SDS011;8075;47.766;8.846;2024-02-23T05:27:25;1.08;;;0.45;;
15952;SDS011;8075;47.766;8.846;2024-02-23T05:29:52;0.90;;;0.30;;
15952;SDS011;8075;47.766;8.846;2024-02-23T05:32:18;1.60;;;0.60;;
15952;SDS011;8075;47.766;8.846;2024-02-23T05:34:44;0.85;;;0.40;;
15952;SDS011;8075;47.766;8.846;2024-02-23T05:37:10;0.77;;;0.30;;
15952;SDS011;8075;47.766;8.846;2024-02-23T05:39:36;3.15;;;0.47;;
15952;SDS011;8075;47.766;8.846;2024-02-23T05:42:03;0.98;;;0.40;;
15952;SDS011;8075;47.766;8.846;2024-02-23T05:44:29;1.58;;;0.40;;
15952;SDS011;8075;47.766;8.846;2024-02-23T05:46:55;1.37;;;0.40;;
15952;SDS011;8075;47.766;8.846;2024-02-23T05:49:21;2.45;;;0.68;;
15952;SDS011;8075;47.766;8.846;2024-02-23T05:51:47;2.15;;;0.60;;
15952;SDS011;8075;47.766;8.846;2024-02-23T05:54:13;1.83;;;0.50;;
15952;SDS011;8075;47.766;8.846;2024-02-23T05:56:39;2.53;;;0.80;;
15952;SDS011;8075;47.766;8.846;2024-02-23T05:59:05;1.27;;;0.50;;
15952;SDS011;8075;47.766;8.846;2024-02-23T06:01:31;1.25;;;0.70;;
15952;SDS011;8075;47.766;8.846;2024-02-23T06:03:57;1.20;;;0.45;;
15952;SDS011;8075;47.766;8.846;2024-02-23T06:06:23;2.15;;;0.70;;
15952;SDS011;8075;47.766;8.846;2024-02-23T06:08:49;1.00;;;0.50;;
15952;SDS011;8075;47.766;8.846;2024-02-23T06:11:16;1.38;;;0.57;;
15952;SDS011;8075;47.766;8.846;2024-02-23T06:13:42;1.50;;;0.70;;
15952;SDS011;8075;47.766;8.846;2024-02-23T06:16:11;2.55;;;0.60;;
15952;SDS011;8075;47.766;8.846;2024-02-23T06:18:38;1.10;;;0.50;;
15952;SDS011;8075;47.766;8.846;2024-02-23T06:21:16;1.88;;;0.60;;
15952;SDS011;8075;47.766;8.846;2024-02-23T06:23:43;2.00;;;0.50;;
15952;SDS011;8075;47.766;8.846;2024-02-23T06:26:09;2.17;;;0.70;;
15952;SDS011;8075;47.766;8.846;2024-02-23T06:28:35;1.63;;;0.50;;
15952;SDS011;8075;47.766;8.846;2024-02-23T06:31:03;2.17;;;0.60;;
15952;SDS011;8075;47.766;8.846;2024-02-23T06:33:30;1.58;;;0.40;;
15952;SDS011;8075;47.766;8.846;2024-02-23T06:35:56;3.25;;;0.70;;
15952;SDS011;8075;47.766;8.846;2024-02-23T06:38:22;2.65;;;0.50;;
15952;SDS011;8075;47.766;8.846;2024-02-23T06:40:48;1.75;;;0.60;;
15952;SDS011;8075;47.766;8.846;2024-02-23T06:43:14;2.90;;;1.10;;
15952;SDS011;8075;47.766;8.846;2024-02-23T06:45:40;1.77;;;1.30;;
15952;SDS011;8075;47.766;8.846;2024-02-23T06:48:06;4.20;;;1.20;;
15952;SDS011;8075;47.766;8.846;2024-02-23T06:50:32;2.92;;;0.80;;
15952;SDS011;8075;47.766;8.846;2024-02-23T06:52:58;3.25;;;0.60;;
15952;SDS011;8075;47.766;8.846;2024-02-23T06:55:24;2.08;;;0.70;;
15952;SDS011;8075;47.766;8.846;2024-02-23T06:57:50;4.22;;;0.60;;
15952;SDS011;8075;47.766;8.846;2024-02-23T07:00:16;4.78;;;0.65;;
15952;SDS011;8075;47.766;8.846;2024-02-23T07:02:42;2.10;;;0.82;;
15952;SDS011;8075;47.766;8.846;2024-02-23T07:05:08;1.60;;;0.65;;
15952;SDS011;8075;47.766;8.846;2024-02-23T07:07:35;3.83;;;0.63;;
15952;SDS011;8075;47.766;8.846;2024-02-23T07:10:01;2.30;;;0.75;;
15952;SDS011;8075;47.766;8.846;2024-02-23T07:12:27;2.08;;;0.68;;
15952;SDS011;8075;47.766;8.846;2024-02-23T07:14:54;3.47;;;0.90;;
15952;SDS011;8075;47.766;8.846;2024-02-23T07:17:20;2.78;;;1.00;;
15952;SDS011;8075;47.766;8.846;2024-02-23T07:19:46;2.40;;;0.93;;
15952;SDS011;8075;47.766;8.846;2024-02-23T07:22:12;3.33;;;0.77;;
15952;SDS011;8075;47.766;8.846;2024-02-23T07:24:42;2.22;;;0.90;;
15952;SDS011;8075;47.766;8.846;2024-02-23T07:27:08;1.80;;;0.80;;
15952;SDS011;8075;47.766;8.846;2024-02-23T07:29:34;2.60;;;0.70;;
15952;SDS011;8075;47.766;8.846;2024-02-23T07:32:00;2.92;;;0.85;;
15952;SDS011;8075;47.766;8.846;2024-02-23T07:34:26;2.58;;;1.10;;
15952;SDS011;8075;47.766;8.846;2024-02-23T07:36:53;4.10;;;1.75;;
15952;SDS011;8075;47.766;8.846;2024-02-23T07:39:19;9.40;;;3.83;;
15952;SDS011;8075;47.766;8.846;2024-02-23T07:41:45;7.03;;;3.30;;
15952;SDS011;8075;47.766;8.846;2024-02-23T07:44:11;6.80;;;2.45;;
15952;SDS011;8075;47.766;8.846;2024-02-23T07:46:37;6.03;;;2.10;;
15952;SDS011;8075;47.766;8.846;2024-02-23T07:49:06;2.78;;;1.00;;
15952;SDS011;8075;47.766;8.846;2024-02-23T07:51:32;3.35;;;1.08;;
15952;SDS011;8075;47.766;8.846;2024-02-23T07:53:58;2.97;;;0.90;;
15952;SDS011;8075;47.766;8.846;2024-02-23T07:56:24;3.08;;;0.85;;
15952;SDS011;8075;47.766;8.846;2024-02-23T07:58:50;2.10;;;0.73;;
15952;SDS011;8075;47.766;8.846;2024-02-23T08:01:16;1.85;;;0.60;;
15952;SDS011;8075;47.766;8.846;2024-02-23T08:03:42;2.53;;;0.80;;
15952;SDS011;8075;47.766;8.846;2024-02-23T08:06:08;3.33;;;1.00;;
15952;SDS011;8075;47.766;8.846;2024-02-23T08:08:35;1.90;;;0.60;;
15952;SDS011;8075;47.766;8.846;2024-02-23T08:11:01;2.58;;;1.00;;
15952;SDS011;8075;47.766;8.846;2024-02-23T08:13:28;2.63;;;1.00;;
15952;SDS011;8075;47.766;8.846;2024-02-23T08:15:54;2.15;;;0.73;;
15952;SDS011;8075;47.766;8.846;2024-02-23T08:18:20;3.13;;;0.93;;
15952;SDS011;8075;47.766;8.846;2024-02-23T08:20:47;2.00;;;1.00;;
15952;SDS011;8075;47.766;8.846;2024-02-23T08:23:14;4.40;;;0.90;;
15952;SDS011;8075;47.766;8.846;2024-02-23T08:25:40;1.97;;;0.67;;
15952;SDS011;8075;47.766;8.846;2024-02-23T08:28:06;2.97;;;0.93;;
15952;SDS011;8075;47.766;8.846;2024-02-23T08:30:32;4.00;;;0.80;;
15952;SDS011;8075;47.766;8.846;2024-02-23T08:32:58;1.67;;;0.60;;
15952;SDS011;8075;47.766;8.846;2024-02-23T08:35:25;3.00;;;0.77;;
15952;SDS011;8075;47.766;8.846;2024-02-23T08:37:50;3.03;;;1.10;;
15952;SDS011;8075;47.766;8.846;2024-02-23T08:40:17;2.47;;;1.17;;
15952;SDS011;8075;47.766;8.846;2024-02-23T08:42:43;3.10;;;1.65;;
15952;SDS011;8075;47.766;8.846;2024-02-23T08:45:09;3.03;;;1.10;;
15952;SDS011;8075;47.766;8.846;2024-02-23T08:47:37;3.07;;;1.03;;
15952;SDS011;8075;47.766;8.846;2024-02-23T08:50:03;3.72;;;1.00;;
15952;SDS011;8075;47.766;8.846;2024-02-23T08:52:29;3.58;;;1.10;;
15952;SDS011;8075;47.766;8.846;2024-02-23T08:54:55;2.00;;;0.80;;
15952;SDS011;8075;47.766;8.846;2024-02-23T08:57:21;2.90;;;1.00;;
15952;SDS011;8075;47.766;8.846;2024-02-23T08:59:51;3.33;;;0.70;;
15952;SDS011;8075;47.766;8.846;2024-02-23T09:02:17;2.15;;;0.95;;
15952;SDS011;8075;47.766;8.846;2024-02-23T09:04:44;3.20;;;1.10;;
15952;SDS011;8075;47.766;8.846;2024-02-23T09:07:10;3.35;;;0.82;;
15952;SDS011;8075;47.766;8.846;2024-02-23T09:09:36;2.75;;;0.73;;
15952;SDS011;8075;47.766;8.846;2024-02-23T09:12:02;2.30;;;0.77;;
15952;SDS011;8075;47.766;8.846;2024-02-23T09:14:28;3.17;;;1.10;;
15952;SDS011;8075;47.766;8.846;2024-02-23T09:16:55;2.70;;;1.10;;
15952;SDS011;8075;47.766;8.846;2024-02-23T09:19:21;4.50;;;1.10;;
15952;SDS011;8075;47.766;8.846;2024-02-23T09:21:47;2.72;;;1.25;;
15952;SDS011;8075;47.766;8.846;2024-02-23T09:24:13;2.67;;;1.23;;
15952;SDS011;8075;47.766;8.846;2024-02-23T09:26:39;2.20;;;1.00;;
15952;SDS011;8075;47.766;8.846;2024-02-23T09:29:05;2.65;;;1.10;;
15952;SDS011;8075;47.766;8.846;2024-02-23T09:31:32;1.90;;;0.90;;
15952;SDS011;8075;47.766;8.846;2024-02-23T09:33:58;1.38;;;0.90;;
15952;SDS011;8075;47.766;8.846;2024-02-23T09:36:25;1.97;;;1.10;;
15952;SDS011;8075;47.766;8.846;2024-02-23T09:38:51;2.65;;;0.80;;
15952;SDS011;8075;47.766;8.846;2024-02-23T09:41:20;1.75;;;0.80;;
15952;SDS011;8075;47.766;8.846;2024-02-23T09:43:47;2.63;;;1.80;;
15952;SDS011;8075;47.766;8.846;2024-02-23T09:46:14;2.97;;;1.40;;
15952;SDS011;8075;47.766;8.846;2024-02-23T09:48:40;4.60;;;1.43;;
15952;SDS011;8075;47.766;8.846;2024-02-23T09:51:06;2.20;;;0.97;;
15952;SDS011;8075;47.766;8.846;2024-02-23T09:53:34;1.83;;;0.77;;
15952;SDS011;8075;47.766;8.846;2024-02-23T09:56:02;4.72;;;1.20;;
15952;SDS011;8075;47.766;8.846;2024-02-23T09:58:29;2.42;;;0.90;;
15952;SDS011;8075;47.766;8.846;2024-02-23T10:00:57;2.97;;;1.23;;
15952;SDS011;8075;47.766;8.846;2024-02-23T10:03:25;2.20;;;0.70;;
15952;SDS011;8075;47.766;8.846;2024-02-23T10:05:51;4.82;;;0.85;;
15952;SDS011;8075;47.766;8.846;2024-02-23T10:08:17;2.10;;;0.73;;
15952;SDS011;8075;47.766;8.846;2024-02-23T10:10:45;1.77;;;0.90;;
15952;SDS011;8075;47.766;8.846;2024-02-23T10:13:11;3.05;;;0.90;;
15952;SDS011;8075;47.766;8.846;2024-02-23T10:15:37;2.42;;;1.00;;
15952;SDS011;8075;47.766;8.846;2024-02-23T10:18:04;2.38;;;0.90;;
15952;SDS011;8075;47.766;8.846;2024-02-23T10:20:30;3.67;;;1.07;;
15952;SDS011;8075;47.766;8.846;2024-02-23T10:22:56;3.53;;;0.82;;
15952;SDS011;8075;47.766;8.846;2024-02-23T10:25:22;3.15;;;0.90;;
15952;SDS011;8075;47.766;8.846;2024-02-23T10:27:48;2.85;;;0.90;;
15952;SDS011;8075;47.766;8.846;2024-02-23T10:30:14;2.70;;;1.30;;
15952;SDS011;8075;47.766;8.846;2024-02-23T10:32:40;2.50;;;1.10;;
15952;SDS011;8075;47.766;8.846;2024-02-23T10:35:09;1.98;;;1.00;;
15952;SDS011;8075;47.766;8.846;2024-02-23T10:37:35;2.58;;;1.00;;
15952;SDS011;8075;47.766;8.846;2024-02-23T10:40:01;2.00;;;1.00;;
15952;SDS011;8075;47.766;8.846;2024-02-23T10:42:30;2.50;;;1.00;;
15952;SDS011;8075;47.766;8.846;2024-02-23T10:44:59;3.72;;;1.58;;
15952;SDS011;8075;47.766;8.846;2024-02-23T10:47:26;4.63;;;2.03;;
15952;SDS011;8075;47.766;8.846;2024-02-23T10:49:54;3.70;;;1.35;;
15952;SDS011;8075;47.766;8.846;2024-02-23T10:52:22;8.55;;;2.72;;
15952;SDS011;8075;47.766;8.846;2024-02-23T10:54:49;4.82;;;1.40;;
15952;SDS011;8075;47.766;8.846;2024-02-23T10:57:17;3.60;;;1.40;;
15952;SDS011;8075;47.766;8.846;2024-02-23T10:59:46;6.50;;;2.00;;
15952;SDS011;8075;47.766;8.846;2024-02-23T11:02:13;3.97;;;1.40;;
15952;SDS011;8075;47.766;8.846;2024-02-23T11:04:41;4.35;;;1.65;;
15952;SDS011;8075;47.766;8.846;2024-02-23T11:07:12;4.78;;;1.50;;
15952;SDS011;8075;47.766;8.846;2024-02-23T11:09:39;4.00;;;1.10;;
15952;SDS011;8075;47.766;8.846;2024-02-23T11:12:05;3.28;;;1.25;;
15952;SDS011;8075;47.766;8.846;2024-02-23T11:14:35;3.20;;;1.20;;
15952;SDS011;8075;47.766;8.846;2024-02-23T11:17:02;5.43;;;1.05;;
15952;SDS011;8075;47.766;8.846;2024-02-23T11:19:39;5.35;;;1.70;;
15952;SDS011;8075;47.766;8.846;2024-02-23T11:22:08;4.13;;;1.45;;
15952;SDS011;8075;47.766;8.846;2024-02-23T11:24:35;3.67;;;1.23;;
15952;SDS011;8075;47.766;8.846;2024-02-23T11:27:13;3.00;;;0.70;;
15952;SDS011;8075;47.766;8.846;2024-02-23T11:29:39;2.67;;;1.00;;
15952;SDS011;8075;47.766;8.846;2024-02-23T11:32:17;3.47;;;1.50;;
15952;SDS011;8075;47.766;8.846;2024-02-23T11:34:56;3.58;;;0.93;;
15952;SDS011;8075;47.766;8.846;2024-02-23T11:37:22;3.38;;;0.88;;
15952;SDS011;8075;47.766;8.846;2024-02-23T11:39:48;2.22;;;0.80;;
15952;SDS011;8075;47.766;8.846;2024-02-23T11:42:15;4.10;;;0.90;;
15952;SDS011;8075;47.766;8.846;2024-02-23T11:44:41;3.97;;;1.00;;
15952;SDS011;8075;47.766;8.846;2024-02-23T11:47:07;2.92;;;0.90;;
15952;SDS011;8075;47.766;8.846;2024-02-23T11:49:33;4.15;;;1.40;;
15952;SDS011;8075;47.766;8.846;2024-02-23T11:51:59;4.10;;;1.20;;
15952;SDS011;8075;47.766;8.846;2024-02-23T11:54:25;3.40;;;1.10;;
15952;SDS011;8075;47.766;8.846;2024-02-23T11:56:51;3.15;;;1.05;;
15952;SDS011;8075;47.766;8.846;2024-02-23T11:59:18;2.47;;;0.65;;
15952;SDS011;8075;47.766;8.846;2024-02-23T12:01:45;5.90;;;1.10;;
15952;SDS011;8075;47.766;8.846;2024-02-23T12:04:12;5.38;;;0.80;;
15952;SDS011;8075;47.766;8.846;2024-02-23T12:06:38;3.50;;;0.80;;
15952;SDS011;8075;47.766;8.846;2024-02-23T12:09:04;2.90;;;0.80;;
15952;SDS011;8075;47.766;8.846;2024-02-23T12:11:30;2.53;;;0.98;;
15952;SDS011;8075;47.766;8.846;2024-02-23T12:13:56;3.55;;;1.00;;
15952;SDS011;8075;47.766;8.846;2024-02-23T12:16:22;1.52;;;0.70;;
15952;SDS011;8075;47.766;8.846;2024-02-23T12:18:55;4.25;;;0.93;;
15952;SDS011;8075;47.766;8.846;2024-02-23T12:21:22;3.83;;;0.70;;
15952;SDS011;8075;47.766;8.846;2024-02-23T12:23:49;3.95;;;0.98;;
15952;SDS011;8075;47.766;8.846;2024-02-23T12:26:16;3.83;;;0.60;;
15952;SDS011;8075;47.766;8.846;2024-02-23T12:28:42;2.40;;;0.80;;
15952;SDS011;8075;47.766;8.846;2024-02-23T12:31:09;2.85;;;1.00;;
15952;SDS011;8075;47.766;8.846;2024-02-23T12:33:35;2.00;;;0.75;;
15952;SDS011;8075;47.766;8.846;2024-02-23T12:36:03;3.72;;;0.77;;
15952;SDS011;8075;47.766;8.846;2024-02-23T12:38:29;4.38;;;1.00;;
15952;SDS011;8075;47.766;8.846;2024-02-23T12:40:55;2.13;;;0.85;;
15952;SDS011;8075;47.766;8.846;2024-02-23T12:43:21;5.18;;;0.80;;
15952;SDS011;8075;47.766;8.846;2024-02-23T12:45:49;2.83;;;0.90;;
15952;SDS011;8075;47.766;8.846;2024-02-23T12:48:15;2.50;;;0.68;;
15952;SDS011;8075;47.766;8.846;2024-02-23T12:50:42;2.40;;;0.90;;
15952;SDS011;8075;47.766;8.846;2024-02-23T12:53:09;2.00;;;0.70;;
15952;SDS011;8075;47.766;8.846;2024-02-23T12:55:35;2.55;;;0.75;;
15952;SDS011;8075;47.766;8.846;2024-02-23T12:58:02;2.70;;;0.77;;
15952;SDS011;8075;47.766;8.846;2024-02-23T13:00:28;2.35;;;1.00;;
15952;SDS011;8075;47.766;8.846;2024-02-23T13:02:54;2.38;;;0.80;;
15952;SDS011;8075;47.766;8.846;2024-02-23T13:05:20;4.35;;;1.02;;
15952;SDS011;8075;47.766;8.846;2024-02-23T13:07:46;2.28;;;0.80;;
15952;SDS011;8075;47.766;8.846;2024-02-23T13:10:13;1.98;;;0.60;;
15952;SDS011;8075;47.766;8.846;2024-02-23T13:12:39;3.03;;;0.95;;
15952;SDS011;8075;47.766;8.846;2024-02-23T13:15:06;4.03;;;0.75;;
15952;SDS011;8075;47.766;8.846;2024-02-23T13:17:32;1.42;;;0.57;;
15952;SDS011;8075;47.766;8.846;2024-02-23T13:19:58;3.47;;;1.40;;
15952;SDS011;8075;47.766;8.846;2024-02-23T13:22:24;2.03;;;0.80;;
15952;SDS011;8075;47.766;8.846;2024-02-23T13:24:50;2.65;;;0.77;;
15952;SDS011;8075;47.766;8.846;2024-02-23T13:27:16;5.17;;;1.00;;
15952;SDS011;8075;47.766;8.846;2024-02-23T13:29:41;2.83;;;0.90;;
15952;SDS011;8075;47.766;8.846;2024-02-23T13:32:07;3.03;;;0.80;;
15952;SDS011;8075;47.766;8.846;2024-02-23T13:34:33;1.93;;;0.70;;
15952;SDS011;8075;47.766;8.846;2024-02-23T13:36:59;2.50;;;0.73;;
15952;SDS011;8075;47.766;8.846;2024-02-23T13:39:25;2.20;;;0.80;;
15952;SDS011;8075;47.766;8.846;2024-02-23T13:41:51;2.90;;;1.07;;
15952;SDS011;8075;47.766;8.846;2024-02-23T13:44:17;4.75;;;0.80;;
15952;SDS011;8075;47.766;8.846;2024-02-23T13:46:43;4.35;;;0.90;;
15952;SDS011;8075;47.766;8.846;2024-02-23T13:49:09;4.03;;;0.90;;
15952;SDS011;8075;47.766;8.846;2024-02-23T13:51:37;3.13;;;0.90;;
15952;SDS011;8075;47.766;8.846;2024-02-23T13:54:03;2.80;;;0.70;;
15952;SDS011;8075;47.766;8.846;2024-02-23T13:56:30;4.85;;;1.10;;
15952;SDS011;8075;47.766;8.846;2024-02-23T13:58:56;2.28;;;0.77;;
15952;SDS011;8075;47.766;8.846;2024-02-23T14:01:22;2.20;;;0.73;;
15952;SDS011;8075;47.766;8.846;2024-02-23T14:03:48;4.32;;;1.00;;
15952;SDS011;8075;47.766;8.846;2024-02-23T14:06:14;2.30;;;0.83;;
15952;SDS011;8075;47.766;8.846;2024-02-23T14:08:40;2.35;;;0.90;;
15952;SDS011;8075;47.766;8.846;2024-02-23T14:11:07;2.10;;;0.90;;
15952;SDS011;8075;47.766;8.846;2024-02-23T14:13:33;3.00;;;0.80;;
15952;SDS011;8075;47.766;8.846;2024-02-23T14:15:59;4.90;;;2.75;;
15952;SDS011;8075;47.766;8.846;2024-02-23T14:18:26;11.52;;;5.75;;
15952;SDS011;8075;47.766;8.846;2024-02-23T14:20:52;2.80;;;0.90;;
15952;SDS011;8075;47.766;8.846;2024-02-23T14:23:18;1.73;;;0.70;;
15952;SDS011;8075;47.766;8.846;2024-02-23T14:25:44;3.33;;;0.90;;
15952;SDS011;8075;47.766;8.846;2024-02-23T14:28:10;3.97;;;1.10;;
15952;SDS011;8075;47.766;8.846;2024-02-23T14:30:38;2.95;;;0.63;;
15952;SDS011;8075;47.766;8.846;2024-02-23T14:33:05;3.83;;;1.10;;
15952;SDS011;8075;47.766;8.846;2024-02-23T14:35:31;2.10;;;0.60;;
15952;SDS011;8075;47.766;8.846;2024-02-23T14:37:57;3.57;;;1.40;;
15952;SDS011;8075;47.766;8.846;2024-02-23T14:40:23;3.35;;;1.08;;
15952;SDS011;8075;47.766;8.846;2024-02-23T14:42:49;5.30;;;3.60;;
15952;SDS011;8075;47.766;8.846;2024-02-23T14:45:15;2.40;;;1.40;;
15952;SDS011;8075;47.766;8.846;2024-02-23T14:47:41;2.15;;;0.77;;
15952;SDS011;8075;47.766;8.846;2024-02-23T14:50:09;3.33;;;2.60;;
15952;SDS011;8075;47.766;8.846;2024-02-23T14:52:35;3.90;;;0.60;;
15952;SDS011;8075;47.766;8.846;2024-02-23T14:55:01;2.30;;;0.73;;